Hecker, Illinois
Current Conditions -  °F | °C
As of 3:58 PM on Saturday 25 Oct 2014 (Local Time) from KBLV Reporting Station
Clear Clear  
Wind Chill: 26°   Ceiling: Unl
Heat Index: 27°   Visibility: 10mi
Dew Point: 13°   Wind: 7mph
Humidity: 44%   Direction: 310°NW
Pressure: 30"   Gusts: NA
Location:  38.31°N, 89.99°W
Report Text: KBLV 252058Z AUTO 31006KT 10SM CLR 26/13 A3000 RMK AO2 SLP160 T02630132 56005 $
Loading
Personal Weather Stations






























Interactive Weather Map
Tropical Storm Tracking
New forecast layout! Learn more

10-Day Weather Forecast

Advertisements
Track Severe Weather on mobile